Time;durP1;ratioP1;P1;durP2;ratioP2;P2;SDS_P1;SDS_P2;PMS_P1;PMS_P2;Temp;Humidity;BMP_temperature;BMP_pressure;BME280_temperature;BME280_humidity;BME280_pressure;Samples;Min_cycle;Max_cycle;Signal;HPM_P1;HPM_P2
2023/02/14 00:00:42;;;;;;;36.07;19.30;;;;;;;-1.19;85.55;102017.66;5048796;28;20445;-67
2023/02/14 00:03:07;;;;;;;35.27;20.17;;;;;;;-1.07;85.64;102024.06;5050024;28;20032;-68
2023/02/14 00:05:33;;;;;;;31.70;18.67;;;;;;;-1.21;84.84;102004.81;5056015;28;20024;-65
2023/02/14 00:07:58;;;;;;;33.87;19.60;;;;;;;-1.39;84.30;101970.75;5056297;28;20111;-66
2023/02/14 00:10:24;;;;;;;33.27;18.73;;;;;;;-1.05;83.55;102031.81;5056519;28;20025;-65
2023/02/14 00:12:49;;;;;;;28.10;17.97;;;;;;;-1.20;82.16;102033.56;5056220;28;20202;-64
2023/02/14 00:15:21;;;;;;;30.17;18.27;;;;;;;-1.55;81.88;102006.16;5056508;28;20045;-66
2023/02/14 00:17:47;;;;;;;32.60;19.00;;;;;;;-1.35;81.99;102046.34;5056491;28;20073;-66
2023/02/14 00:20:12;;;;;;;33.20;18.17;;;;;;;-1.32;82.00;102053.41;5056471;28;20017;-64
2023/02/14 00:22:38;;;;;;;36.37;19.00;;;;;;;-1.24;81.20;102055.16;5055987;28;20403;-63
2023/02/14 00:25:04;;;;;;;28.47;16.80;;;;;;;-1.21;81.81;102058.03;5056126;28;20479;-70
2023/02/14 00:27:29;;;;;;;31.47;18.20;;;;;;;-1.16;81.50;102055.97;5055805;28;20434;-63
2023/02/14 00:29:57;;;;;;;28.53;17.53;;;;;;;-1.10;81.16;102063.38;5020666;28;20043;-64
2023/02/14 00:32:22;;;;;;;32.33;17.77;;;;;;;-1.07;80.99;102061.16;5004447;28;20047;-61
2023/02/14 00:34:48;;;;;;;30.20;16.83;;;;;;;-1.20;81.05;102048.78;5056246;28;20403;-65
2023/02/14 00:37:13;;;;;;;26.67;16.13;;;;;;;-1.28;81.24;102050.47;5056116;28;20405;-61
2023/02/14 00:39:38;;;;;;;30.80;17.67;;;;;;;-1.39;81.42;102045.88;5056248;28;20510;-64
2023/02/14 00:42:04;;;;;;;29.80;17.20;;;;;;;-1.69;81.82;102040.09;5055929;28;20025;-65
2023/02/14 00:44:29;;;;;;;32.33;19.73;;;;;;;-2.19;83.29;102048.88;5056197;28;20120;-64
2023/02/14 00:46:55;;;;;;;34.43;20.33;;;;;;;-2.36;85.71;102052.00;5056402;28;20056;-65
2023/02/14 00:49:21;;;;;;;35.43;20.83;;;;;;;-2.62;85.41;101993.41;5056251;28;20024;-67
2023/02/14 00:51:46;;;;;;;37.03;19.87;;;;;;;-2.26;86.58;102043.84;5056567;28;20110;-64
2023/02/14 00:54:12;;;;;;;35.20;20.93;;;;;;;-2.16;86.74;102046.69;5056413;28;20071;-65
2023/02/14 00:56:37;;;;;;;37.80;19.30;;;;;;;-2.06;86.66;102042.69;5056267;28;20033;-65
2023/02/14 00:59:02;;;;;;;29.23;18.20;;;;;;;-2.22;87.09;102035.88;5056584;28;20039;-63
2023/02/14 01:01:28;;;;;;;35.97;19.30;;;;;;;-2.34;88.42;102042.09;5056367;28;20044;-65
2023/02/14 01:03:55;;;;;;;32.57;19.50;;;;;;;-2.35;89.13;102050.41;5056576;28;20036;-67
2023/02/14 01:06:20;;;;;;;30.73;18.97;;;;;;;-2.50;89.22;102009.97;5056253;28;20032;-65
2023/02/14 01:08:46;;;;;;;30.83;19.33;;;;;;;-2.19;88.73;102048.88;5056369;28;20025;-63
2023/02/14 01:11:17;;;;;;;35.33;20.47;;;;;;;-2.32;88.04;102000.16;5056016;28;20095;-63
2023/02/14 01:13:45;;;;;;;31.57;18.77;;;;;;;-2.93;87.29;101909.03;5048735;28;20083;-64
2023/02/14 01:16:14;;;;;;;35.90;20.00;;;;;;;-2.04;86.82;102037.06;5052533;28;20475;-63
2023/02/14 01:18:41;;;;;;;33.85;18.13;;;;;;;-2.08;85.71;102039.06;5053161;28;20498;-64
2023/02/14 01:21:20;;;;;;;28.60;18.27;;;;;;;-2.19;85.17;102005.88;5052883;28;20815;-64
2023/02/14 01:23:47;;;;;;;28.48;17.15;;;;;;;-2.07;84.90;102035.81;5053112;28;20060;-65
2023/02/14 01:26:14;;;;;;;27.73;16.97;;;;;;;-2.12;84.57;102031.13;5053071;28;20052;-70
2023/02/14 01:28:41;;;;;;;28.30;16.73;;;;;;;-2.30;84.13;102029.94;5034806;28;20025;-68
2023/02/14 01:31:12;;;;;;;27.37;16.90;;;;;;;-2.34;83.89;102029.44;5052932;28;20387;-67
2023/02/14 01:33:38;;;;;;;29.10;17.27;;;;;;;-2.35;83.90;102027.63;5052785;28;20060;-64
2023/02/14 01:36:04;;;;;;;26.60;15.87;;;;;;;-2.41;84.04;102025.28;5052841;28;20029;-64
2023/02/14 01:38:30;;;;;;;29.43;17.97;;;;;;;-2.52;84.79;102029.13;5052442;28;20145;-68
2023/02/14 01:40:55;;;;;;;27.00;16.40;;;;;;;-2.50;84.82;102012.50;5052879;28;20495;-63
2023/02/14 01:43:21;;;;;;;28.73;16.60;;;;;;;-2.65;85.10;101996.50;5052627;28;20043;-67
2023/02/14 01:45:46;;;;;;;30.63;17.17;;;;;;;-2.59;85.37;102019.06;5052705;28;20045;-70
2023/02/14 01:48:12;;;;;;;28.07;16.40;;;;;;;-2.61;85.73;102017.97;5052332;28;20039;-64
2023/02/14 01:50:42;;;;;;;27.30;16.37;;;;;;;-2.59;85.63;102021.59;5052628;28;20029;-67
2023/02/14 01:53:20;;;;;;;29.67;16.23;;;;;;;-2.52;85.13;102013.94;5052175;28;20120;-69
2023/02/14 01:55:55;;;;;;;30.20;17.10;;;;;;;-2.47;84.62;102007.81;5045149;28;20021;-64
2023/02/14 01:58:25;;;;;;;29.40;16.83;;;;;;;-2.81;85.11;101958.44;5052509;28;20029;-65
2023/02/14 02:00:56;;;;;;;31.05;17.05;;;;;;;-2.52;85.71;102013.06;5052636;28;20449;-68
2023/02/14 02:03:25;;;;;;;35.03;19.20;;;;;;;-2.60;85.57;101999.56;5052143;28;20095;-66
2023/02/14 02:05:52;;;;;;;;;;;;;;;-2.65;86.07;101996.50;5052897;28;20047;-67
2023/02/14 02:08:18;;;;;;;28.30;16.30;;;;;;;-2.75;86.05;102003.75;5052292;28;19954;-67
2023/02/14 02:10:43;;;;;;;30.10;16.73;;;;;;;-2.91;85.86;101998.56;5052104;28;20064;-67
2023/02/14 02:13:16;;;;;;;29.43;15.93;;;;;;;-3.01;86.77;101986.47;5052068;28;20474;-64
2023/02/14 02:15:55;;;;;;;31.37;17.33;;;;;;;-3.05;87.54;101988.47;5051992;28;20036;-67
2023/02/14 02:18:58;;;;;;;30.92;17.38;;;;;;;-3.12;87.56;101989.38;5052090;28;20402;-66
2023/02/14 02:22:02;;;;;;;25.67;15.37;;;;;;;-3.06;88.11;101985.06;5051867;28;20063;-68
2023/02/14 02:24:44;;;;;;;26.57;15.43;;;;;;;-3.04;88.14;101987.75;4970796;28;20041;-64
2023/02/14 02:27:18;;;;;;;26.37;14.43;;;;;;;-3.12;88.05;101985.22;4970482;28;20544;-65
2023/02/14 02:30:07;;;;;;;27.70;16.10;;;;;;;-3.98;89.25;101892.78;4970507;28;20051;-63
2023/02/14 02:33:11;;;;;;;32.33;17.23;;;;;;;-3.46;90.11;101988.00;4970497;28;20468;-69
2023/02/14 02:35:48;;;;;;;35.27;18.27;;;;;;;-3.53;90.89;101981.31;4932062;29;20094;-67
2023/02/14 02:38:31;;;;;;;30.47;16.33;;;;;;;-3.54;90.97;101984.53;4932035;29;20119;-64
2023/02/14 02:41:34;;;;;;;27.77;15.57;;;;;;;-3.57;91.24;101958.94;4931765;29;20043;-64
2023/02/14 02:44:17;;;;;;;28.17;16.47;;;;;;;-3.84;90.75;101901.09;4894007;29;20494;-70
2023/02/14 02:46:56;;;;;;;28.77;15.93;;;;;;;-3.62;91.43;101957.50;4893898;29;20078;-67
2023/02/14 02:55:21;;;;;;;30.57;15.97;;;;;;;-3.53;91.48;101943.44;4919830;29;20042;-65
2023/02/14 02:57:50;;;;;;;29.37;17.20;;;;;;;-3.72;91.74;101942.03;4950638;29;20050;-63
2023/02/14 03:00:17;;;;;;;28.90;17.13;;;;;;;-3.80;92.39;101938.56;4950803;29;20048;-63
2023/02/14 03:05:33;;;;;;;35.17;20.33;;;;;;;-3.83;94.31;101955.88;4950849;29;20572;-65
2023/02/14 03:07:59;;;;;;;37.13;20.33;;;;;;;-4.26;95.35;101863.41;4950515;29;20433;-66
2023/02/14 03:10:28;;;;;;;36.13;20.73;;;;;;;-3.61;95.81;101954.28;4950812;29;20031;-69
2023/02/14 03:13:20;;;;;;;36.87;19.73;;;;;;;-3.47;95.81;101945.78;4963985;28;20034;-68
2023/02/14 03:16:22;;;;;;;35.90;19.57;;;;;;;-3.50;95.43;101932.78;4969883;28;20067;-64
2023/02/14 03:21:57;;;;;;;35.27;18.73;;;;;;;-3.47;96.09;101934.06;5039426;28;20044;-63
2023/02/14 03:24:32;;;;;;;35.87;20.60;;;;;;;-3.38;95.52;101943.44;5050904;28;20106;-67
2023/02/14 03:27:08;;;;;;;35.27;20.17;;;;;;;-3.37;95.73;101937.66;5050483;28;20033;-67
2023/02/14 03:29:56;;;;;;;39.10;21.10;;;;;;;-3.48;96.29;101928.81;5050870;28;20021;-64
2023/02/14 03:32:50;;;;;;;35.30;20.60;;;;;;;-3.45;96.55;101926.66;5050739;28;20033;-63
2023/02/14 03:35:24;;;;;;;34.03;19.03;;;;;;;-3.41;96.55;101927.19;5050383;28;20029;-67
2023/02/14 03:38:04;;;;;;;40.23;20.17;;;;;;;-3.42;96.48;101912.75;5050165;28;20029;-64
2023/02/14 03:40:42;;;;;;;38.07;21.83;;;;;;;-3.25;96.39;101934.03;5050308;28;20033;-64
2023/02/14 03:43:13;;;;;;;43.93;23.53;;;;;;;-3.34;96.28;101936.41;5050727;28;20043;-69
2023/02/14 03:45:44;;;;;;;45.37;23.67;;;;;;;-3.33;96.73;101962.53;5050345;28;20048;-68
2023/02/14 03:48:13;;;;;;;40.30;22.67;;;;;;;-3.27;96.97;101950.63;5050559;28;20487;-63
2023/02/14 03:50:43;;;;;;;43.47;24.40;;;;;;;-3.25;96.36;101928.97;5050331;28;20045;-70
2023/02/14 03:53:11;;;;;;;42.17;23.70;;;;;;;-3.33;96.41;101927.19;5050544;28;20135;-70
2023/02/14 03:55:46;;;;;;;45.87;24.93;;;;;;;-3.54;96.62;101893.66;5050333;28;20044;-63
2023/02/14 03:58:20;;;;;;;47.03;25.83;;;;;;;-3.31;96.72;101925.75;4999029;28;20048;-63
2023/02/14 04:00:49;;;;;;;46.00;24.90;;;;;;;-3.30;96.76;101928.44;5043987;28;20029;-66
2023/02/14 04:03:17;;;;;;;38.00;21.33;;;;;;;-3.25;96.47;101928.97;5030282;28;20033;-67
2023/02/14 04:05:51;;;;;;;43.70;25.03;;;;;;;-3.26;96.11;101925.53;5005169;28;20029;-63
2023/02/14 04:08:21;;;;;;;47.23;25.70;;;;;;;-3.35;97.06;101916.00;5030318;28;20510;-63
2023/02/14 04:10:47;;;;;;;45.73;25.83;;;;;;;-3.30;97.00;101930.09;5028931;28;20036;-65
2023/02/14 04:13:12;;;;;;;46.30;25.77;;;;;;;-3.37;97.41;101935.13;5043814;28;20025;-63
2023/02/14 04:15:37;;;;;;;48.43;26.50;;;;;;;-3.64;97.63;101878.19;5050140;28;20494;-64
2023/02/14 04:20:47;;;;;;;46.70;24.73;;;;;;;-3.57;99.00;101928.66;5034255;28;20039;-63
2023/02/14 04:23:12;;;;;;;52.03;26.47;;;;;;;-3.58;99.23;101920.19;5014760;28;20491;-63
2023/02/14 04:25:39;;;;;;;47.53;26.30;;;;;;;-3.67;99.69;101903.97;5050235;28;20048;-67
2023/02/14 04:28:06;;;;;;;43.10;23.87;;;;;;;-3.61;100.00;101913.88;5049973;28;20033;-68
2023/02/14 04:30:31;;;;;;;52.73;26.53;;;;;;;-3.63;100.00;101905.22;5049909;28;20396;-63
2023/02/14 04:32:56;;;;;;;46.97;26.53;;;;;;;-3.65;100.00;101911.72;5050072;28;20032;-67
2023/02/14 04:35:22;;;;;;;45.47;25.20;;;;;;;-3.74;100.00;101894.78;5032067;28;20025;-63
2023/02/14 04:37:47;;;;;;;46.40;25.10;;;;;;;-3.72;100.00;101889.91;5049504;28;20052;-67
2023/02/14 04:40:15;;;;;;;47.60;25.27;;;;;;;-3.91;100.00;101880.19;5049861;28;20112;-65
2023/02/14 04:42:41;;;;;;;52.20;27.87;;;;;;;-3.85;100.00;101869.00;5049905;28;20033;-66
2023/02/14 04:45:07;;;;;;;48.63;27.07;;;;;;;-3.82;100.00;101872.78;5049865;28;20028;-68
2023/02/14 04:47:32;;;;;;;47.83;27.17;;;;;;;-3.79;100.00;101867.19;5049759;28;20098;-67
2023/02/14 04:49:59;;;;;;;50.33;27.93;;;;;;;-3.65;100.00;101868.78;5033066;28;20056;-64
2023/02/14 04:52:24;;;;;;;51.27;29.07;;;;;;;-4.01;100.00;101810.81;5053805;28;20410;-63
2023/02/14 04:54:50;;;;;;;52.97;28.10;;;;;;;-3.65;100.00;101859.63;5053537;28;20108;-67
2023/02/14 04:57:15;;;;;;;51.80;27.50;;;;;;;-3.62;100.00;101851.50;5053641;28;20076;-65
2023/02/14 04:59:41;;;;;;;56.07;28.50;;;;;;;-3.66;100.00;101852.75;5053503;28;20479;-66
2023/02/14 05:02:06;;;;;;;52.13;28.60;;;;;;;-3.69;100.00;101854.03;5053497;28;20469;-68
2023/02/14 05:04:32;;;;;;;55.17;30.20;;;;;;;-3.70;100.00;101842.13;5053109;28;20469;-63
2023/02/14 05:06:57;;;;;;;56.20;31.03;;;;;;;-3.70;100.00;101843.06;5053289;28;20068;-69
2023/02/14 05:09:23;;;;;;;59.03;31.47;;;;;;;-3.72;100.00;101844.47;5053372;28;20107;-67
2023/02/14 05:11:48;;;;;;;62.67;31.63;;;;;;;-3.78;100.00;101849.69;5053145;28;20099;-66
2023/02/14 05:14:13;;;;;;;64.70;32.30;;;;;;;-3.84;100.00;101854.03;5053035;28;20029;-65
2023/02/14 05:16:39;;;;;;;64.23;34.33;;;;;;;-3.92;100.00;101843.06;5053155;28;20032;-67
2023/02/14 05:19:04;;;;;;;62.23;33.70;;;;;;;-3.98;100.00;101846.50;5053220;28;20076;-64
2023/02/14 05:21:32;;;;;;;69.03;37.27;;;;;;;-4.30;100.00;101795.69;5053120;28;20491;-65
2023/02/14 05:23:59;;;;;;;64.00;34.60;;;;;;;-3.95;100.00;101856.94;5034501;28;20037;-63
2023/02/14 05:26:24;;;;;;;60.43;32.50;;;;;;;-4.00;100.00;101858.03;5053327;28;20072;-67
2023/02/14 05:28:50;;;;;;;69.60;36.57;;;;;;;-3.99;100.00;101850.63;5053018;28;20466;-64
2023/02/14 05:31:15;;;;;;;65.53;35.10;;;;;;;-3.99;100.00;101854.78;5052060;28;20044;-66
2023/02/14 05:33:40;;;;;;;63.13;33.03;;;;;;;-4.06;100.00;101851.53;5052716;28;20029;-66
2023/02/14 05:36:07;;;;;;;64.30;32.53;;;;;;;-3.96;100.00;101857.69;5046553;28;20454;-67
2023/02/14 05:38:33;;;;;;;79.50;39.53;;;;;;;-3.85;100.00;101856.38;5032931;28;20100;-63
2023/02/14 05:40:59;;;;;;;87.93;44.43;;;;;;;-4.11;100.00;101817.31;5032757;28;20467;-68
2023/02/14 05:43:25;;;;;;;106.93;50.00;;;;;;;-3.86;100.00;101854.59;5032725;28;20025;-67
2023/02/14 05:45:52;;;;;;;70.13;36.20;;;;;;;-4.18;100.00;101807.22;5033100;28;20076;-67
2023/02/14 05:48:18;;;;;;;82.60;39.07;;;;;;;-3.95;100.00;101849.38;5015184;28;20045;-63
2023/02/14 05:50:44;;;;;;;69.27;35.97;;;;;;;-4.17;100.00;101819.13;5032646;28;20029;-66
2023/02/14 05:53:10;;;;;;;70.03;35.67;;;;;;;-3.93;100.00;101833.69;5032586;28;20025;-68
2023/02/14 05:55:36;;;;;;;58.10;31.77;;;;;;;-3.80;100.00;101855.28;5032724;28;20468;-68
2023/02/14 05:58:01;;;;;;;59.73;33.17;;;;;;;-3.78;100.00;101856.38;5032253;28;20021;-68
2023/02/14 06:00:27;;;;;;;62.13;33.03;;;;;;;-3.79;100.00;101834.41;5032909;28;20467;-67
2023/02/14 06:02:53;;;;;;;60.30;30.77;;;;;;;-3.57;100.00;101847.88;5031450;28;20033;-62
2023/02/14 06:05:19;;;;;;;59.33;32.30;;;;;;;-3.50;100.00;101844.44;5036001;28;20020;-65
2023/02/14 06:07:49;;;;;;;54.77;28.90;;;;;;;-3.31;100.00;101855.03;5048963;28;20025;-67
2023/02/14 06:10:19;;;;;;;59.70;30.60;;;;;;;-3.38;100.00;101840.78;5041368;28;20387;-63
2023/02/14 06:12:47;;;;;;;59.60;31.60;;;;;;;-3.16;100.00;101855.88;5040865;28;20022;-63
2023/02/14 06:15:12;;;;;;;64.70;33.33;;;;;;;-3.04;100.00;101847.19;5041409;28;20538;-66
2023/02/14 06:17:38;;;;;;;64.00;33.27;;;;;;;-2.96;100.00;101825.31;5039673;28;20056;-64
2023/02/14 06:20:04;;;;;;;53.10;30.87;;;;;;;-2.84;100.00;101825.75;5031774;28;20029;-66
2023/02/14 06:22:29;;;;;;;51.37;29.40;;;;;;;-2.75;100.00;101821.75;5031601;28;20029;-65
2023/02/14 06:24:55;;;;;;;56.70;29.90;;;;;;;-2.83;100.00;101798.16;5031767;28;20032;-63
2023/02/14 06:27:20;;;;;;;49.57;28.13;;;;;;;-2.57;100.00;101830.47;5031853;28;20025;-63
2023/02/14 06:30:06;;;;;;;52.17;29.33;;;;;;;-2.70;100.00;101777.66;5009140;28;20045;-67
2023/02/14 06:32:32;;;;;;;54.50;29.17;;;;;;;-2.35;100.00;101827.81;4992749;28;20073;-64
2023/02/14 06:34:57;;;;;;;51.00;27.63;;;;;;;-2.28;100.00;101831.19;5009489;28;20128;-66
2023/02/14 06:37:23;;;;;;;54.43;28.60;;;;;;;-2.16;100.00;101836.69;5009533;28;20045;-68
2023/02/14 06:39:48;;;;;;;47.33;27.40;;;;;;;-1.99;100.00;101842.72;4992554;28;20066;-63
2023/02/14 06:42:13;;;;;;;50.53;27.83;;;;;;;-1.83;100.00;101847.81;4992749;28;20045;-68
2023/02/14 06:44:39;;;;;;;47.83;28.00;;;;;;;-1.85;100.00;101801.19;5009057;28;20471;-70
2023/02/14 06:47:04;;;;;;;45.87;27.77;;;;;;;-1.50;100.00;101836.97;5009347;28;20064;-66
2023/02/14 06:49:30;;;;;;;50.30;27.80;;;;;;;-1.26;100.00;101843.75;5009281;28;20104;-67
2023/02/14 06:51:55;;;;;;;50.00;28.10;;;;;;;-1.07;100.00;101830.50;5009298;28;20034;-67
2023/02/14 06:54:21;;;;;;;44.83;25.90;;;;;;;-0.88;100.00;101828.28;5009037;28;20037;-63
2023/02/14 06:56:46;;;;;;;46.37;25.53;;;;;;;-0.71;100.00;101832.56;5009014;28;20038;-64
2023/02/14 06:59:13;;;;;;;56.97;26.70;;;;;;;-0.54;100.00;101832.66;5008746;28;20112;-65
2023/02/14 07:01:38;;;;;;;47.17;26.10;;;;;;;-0.36;98.58;101841.28;5024955;28;20069;-64
2023/02/14 07:04:04;;;;;;;44.27;25.90;;;;;;;-0.20;98.11;101830.16;5030784;28;20064;-67
2023/02/14 07:06:29;;;;;;;45.03;25.37;;;;;;;-0.05;97.51;101833.34;5031068;28;20043;-68
2023/02/14 07:08:56;;;;;;;43.73;25.27;;;;;;;0.20;96.52;101833.31;5030743;28;20030;-67
2023/02/14 07:11:22;;;;;;;45.60;27.37;;;;;;;0.35;94.83;101839.94;5030925;28;20052;-64
2023/02/14 07:13:48;;;;;;;46.30;25.83;;;;;;;0.53;94.30;101838.31;4971804;28;20531;-63
2023/02/14 07:16:14;;;;;;;45.83;26.23;;;;;;;0.68;93.30;101823.69;5042251;28;20025;-67
2023/02/14 07:18:41;;;;;;;42.70;24.70;;;;;;;0.90;91.85;101825.81;4991408;28;20058;-66
2023/02/14 07:21:06;;;;;;;41.67;24.87;;;;;;;1.00;91.73;101822.47;5008671;28;20101;-67
2023/02/14 07:23:31;;;;;;;44.07;24.90;;;;;;;1.10;92.03;101826.09;5009045;28;20042;-64
2023/02/14 07:25:57;;;;;;;42.30;24.23;;;;;;;0.99;91.83;101775.81;5008760;28;20068;-64
2023/02/14 07:28:23;;;;;;;43.40;24.23;;;;;;;1.33;91.91;101811.25;5008463;28;20026;-63
2023/02/14 07:30:48;;;;;;;38.37;24.33;;;;;;;1.50;90.85;101826.47;4992062;28;20073;-64
2023/02/14 07:33:14;;;;;;;40.50;24.20;;;;;;;1.50;90.26;101820.50;5008374;28;20030;-68
2023/02/14 07:35:39;;;;;;;41.50;24.63;;;;;;;1.61;90.73;101814.78;5008362;28;20036;-68
2023/02/14 07:38:05;;;;;;;41.63;24.40;;;;;;;1.75;89.78;101813.53;5008394;28;20034;-69
2023/02/14 07:40:30;;;;;;;47.33;25.53;;;;;;;1.83;89.45;101814.22;5008413;28;20033;-65
2023/02/14 07:42:57;;;;;;;39.53;24.73;;;;;;;1.62;89.07;101760.56;5007972;28;20038;-68
2023/02/14 07:45:23;;;;;;;44.50;27.00;;;;;;;1.81;89.24;101791.19;5007766;28;20563;-69
2023/02/14 07:47:50;;;;;;;42.87;25.33;;;;;;;1.96;88.60;101798.44;5008222;28;20039;-64
2023/02/14 07:50:16;;;;;;;40.43;24.30;;;;;;;2.06;89.03;101796.91;5008243;28;20113;-63
2023/02/14 07:52:42;;;;;;;43.27;26.33;;;;;;;2.20;88.78;101799.81;5008152;28;20132;-63
2023/02/14 07:55:08;;;;;;;45.30;26.58;;;;;;;1.99;87.69;101756.31;5012442;28;20037;-65
2023/02/14 07:57:33;;;;;;;46.50;27.90;;;;;;;2.42;87.32;101821.41;5049100;28;20036;-65
2023/02/14 07:59:59;;;;;;;46.80;27.10;;;;;;;2.42;87.28;101808.69;5050329;28;20033;-67
2023/02/14 08:02:24;;;;;;;46.33;27.17;;;;;;;2.58;86.66;101805.00;5050306;28;20098;-67
2023/02/14 08:04:50;;;;;;;45.40;27.90;;;;;;;2.69;86.70;101811.03;5050191;28;20035;-64
2023/02/14 08:07:15;;;;;;;43.00;25.17;;;;;;;2.81;86.87;101804.50;5050034;28;20411;-67
2023/02/14 08:09:40;;;;;;;38.28;24.10;;;;;;;2.79;86.22;101807.66;5050011;28;20025;-63
2023/02/14 08:14:53;;;;;;;38.42;24.02;;;;;;;3.01;84.87;101824.13;5043734;28;20120;-65
2023/02/14 08:17:18;;;;;;;37.22;23.15;;;;;;;3.13;84.28;101823.41;4998492;28;20542;-65
2023/02/14 08:19:44;;;;;;;35.67;22.45;;;;;;;3.24;83.35;101821.06;5049743;28;20467;-65
2023/02/14 08:22:09;;;;;;;35.40;23.17;;;;;;;3.26;83.33;101827.97;5031887;28;20127;-63
2023/02/14 08:24:34;;;;;;;42.25;25.50;;;;;;;3.31;82.90;101817.38;5050258;28;20036;-67
2023/02/14 08:27:00;;;;;;;33.72;21.55;;;;;;;3.48;82.61;101828.22;5053850;28;20029;-63
2023/02/14 08:29:25;;;;;;;37.55;24.40;;;;;;;3.65;81.35;101819.44;5053866;28;20100;-66
2023/02/14 08:31:52;;;;;;;35.65;22.73;;;;;;;3.73;80.97;101814.22;5054094;28;20402;-66
2023/02/14 08:34:18;;;;;;;36.25;21.15;;;;;;;3.64;81.41;101797.22;5053766;28;20039;-63
2023/02/14 08:36:43;;;;;;;33.80;21.50;;;;;;;3.79;80.92;101803.66;5053658;28;20033;-66
2023/02/14 08:39:09;;;;;;;34.53;21.40;;;;;;;3.79;79.45;101790.88;5053449;28;20028;-65
2023/02/14 08:41:35;;;;;;;39.17;22.23;;;;;;;3.91;79.88;101796.13;5053810;28;20392;-63
2023/02/14 08:44:01;;;;;;;36.10;21.60;;;;;;;3.94;79.13;101786.19;5053386;28;20413;-68
2023/02/14 08:46:27;;;;;;;33.80;21.50;;;;;;;3.91;78.31;101755.25;5053494;28;20128;-70
2023/02/14 08:48:53;;;;;;;40.72;22.20;;;;;;;4.23;78.03;101779.19;5053413;28;20069;-63
2023/02/14 08:51:21;;;;;;;37.58;21.67;;;;;;;4.23;78.12;101748.53;5053857;28;20025;-68
2023/02/14 08:53:49;;;;;;;35.60;21.95;;;;;;;4.47;76.54;101773.53;5053807;28;20403;-64
2023/02/14 08:56:14;;;;;;;34.97;21.30;;;;;;;4.61;76.27;101768.66;5053643;28;20029;-66
2023/02/14 08:58:40;;;;;;;37.47;20.88;;;;;;;4.65;75.08;101756.25;5053223;28;20509;-67
2023/02/14 09:01:10;;;;;;;32.40;20.48;;;;;;;4.89;73.98;101768.38;5053348;28;20685;-63
2023/02/14 09:03:37;;;;;;;35.10;19.52;;;;;;;4.97;74.00;101760.53;5053473;28;20033;-64
2023/02/14 09:06:07;;;;;;;28.63;18.70;;;;;;;5.08;71.71;101773.28;5053290;28;20075;-63
2023/02/14 09:08:36;;;;;;;33.45;18.88;;;;;;;5.17;71.36;101774.00;5053327;28;20399;-67
2023/02/14 09:11:11;;;;;;;33.05;18.55;;;;;;;5.23;70.45;101773.63;5053251;28;20091;-64
2023/02/14 09:13:36;;;;;;;35.70;21.27;;;;;;;5.11;73.44;101736.03;5053194;28;20075;-63
2023/02/14 09:16:06;;;;;;;33.55;20.77;;;;;;;5.41;72.18;101775.09;5052935;28;20052;-67
2023/02/14 09:18:32;;;;;;;;;;;;;;;5.54;69.33;101770.94;5053495;28;20040;-63
2023/02/14 09:20:57;;;;;;;27.38;15.35;;;;;;;5.39;67.30;101727.09;5053085;28;19917;-67
2023/02/14 09:23:23;;;;;;;25.45;15.43;;;;;;;5.58;66.75;101742.19;5053125;28;20033;-68
2023/02/14 09:25:48;;;;;;;24.35;15.00;;;;;;;5.75;64.63;101779.41;5053201;28;20024;-70
2023/02/14 09:28:14;;;;;;;21.40;13.05;;;;;;;5.97;63.59;101764.88;5034815;28;20056;-68
2023/02/14 09:30:39;;;;;;;24.75;14.57;;;;;;;5.94;62.05;101762.09;5052969;28;20475;-70
2023/02/14 09:33:05;;;;;;;24.92;13.10;;;;;;;6.05;62.11;101764.63;5052661;28;20036;-69
2023/02/14 09:35:31;;;;;;;21.92;13.25;;;;;;;6.19;61.54;101757.97;5052483;28;20029;-63
2023/02/14 09:40:41;;;;;;;25.30;16.75;;;;;;;6.40;62.47;101759.56;5044589;28;20040;-67
2023/02/14 09:43:09;;;;;;;23.15;15.32;;;;;;;6.43;62.96;101756.31;5042963;28;20037;-67
2023/02/14 09:45:37;;;;;;;24.42;14.45;;;;;;;6.40;62.48;101715.06;5041500;28;20053;-66
2023/02/14 09:48:11;;;;;;;26.42;16.25;;;;;;;6.78;61.91;101747.78;5042642;28;20022;-64
2023/02/14 09:50:52;;;;;;;23.92;15.35;;;;;;;6.96;60.66;101746.53;5038845;28;20034;-63
2023/02/14 09:53:24;;;;;;;26.05;15.20;;;;;;;7.07;61.24;101738.72;5045647;28;20029;-65
2023/02/14 09:55:56;;;;;;;23.10;15.95;;;;;;;7.23;61.23;101730.44;5041970;28;20110;-66
2023/02/14 09:58:29;;;;;;;23.45;13.43;;;;;;;7.34;59.78;101726.03;5005669;28;20042;-65
2023/02/14 10:01:08;;;;;;;23.20;13.45;;;;;;;7.48;57.59;101725.34;5043743;28;20029;-66
2023/02/14 10:03:41;;;;;;;21.98;12.60;;;;;;;7.55;57.01;101712.13;5043098;28;20107;-66
2023/02/14 10:06:47;;;;;;;23.02;13.85;;;;;;;7.43;56.58;101711.28;5020500;28;20041;-66
2023/02/14 10:10:03;;;;;;;20.58;11.80;;;;;;;7.65;55.27;101699.91;5020537;28;20036;-66
2023/02/14 10:12:40;;;;;;;21.45;12.57;;;;;;;7.74;54.60;101686.00;4959453;28;20505;-66
2023/02/14 10:15:21;;;;;;;18.52;11.00;;;;;;;7.88;53.99;101688.63;4959627;28;20097;-64
2023/02/14 10:17:48;;;;;;;21.20;12.80;;;;;;;7.91;52.69;101681.09;4957401;28;20038;-66
2023/02/14 10:20:26;;;;;;;21.05;13.23;;;;;;;7.76;52.28;101675.81;4959077;28;20042;-66
2023/02/14 10:23:02;;;;;;;19.52;10.50;;;;;;;7.88;53.17;101674.09;4961383;28;20046;-63
2023/02/14 10:25:36;;;;;;;16.80;10.65;;;;;;;7.99;52.73;101668.75;4961750;28;20023;-66
2023/02/14 10:28:02;;;;;;;21.38;11.85;;;;;;;8.18;50.99;101653.75;4961062;28;20099;-65
2023/02/14 10:30:37;;;;;;;22.95;11.52;;;;;;;8.27;51.30;101640.59;4959576;28;20027;-67
2023/02/14 10:33:12;;;;;;;24.13;13.15;;;;;;;8.46;51.61;101663.34;4969632;28;20125;-63
2023/02/14 10:35:43;;;;;;;20.65;11.52;;;;;;;8.52;50.53;101660.25;4970780;28;20035;-67
2023/02/14 10:38:36;;;;;;;16.85;11.10;;;;;;;8.59;50.06;101657.28;4970422;28;20121;-67
2023/02/14 10:41:30;;;;;;;23.75;13.65;;;;;;;8.70;53.39;101652.81;4955698;28;20051;-65
2023/02/14 10:44:35;;;;;;;28.40;12.98;;;;;;;8.69;50.12;101636.47;4965635;28;20026;-68
2023/02/14 10:47:30;;;;;;;19.42;11.23;;;;;;;8.69;49.67;101613.31;4959664;28;20049;-66
2023/02/14 10:50:04;;;;;;;20.50;11.35;;;;;;;8.90;49.19;101642.09;4993738;28;20528;-67
2023/02/14 10:52:42;;;;;;;18.25;11.95;;;;;;;8.73;49.48;101598.94;4988714;28;20113;-68
2023/02/14 10:55:36;;;;;;;19.95;11.25;;;;;;;9.05;49.28;101630.97;4989113;28;20038;-68
2023/02/14 10:58:05;;;;;;;23.05;12.25;;;;;;;9.06;49.67;101615.59;4989103;28;20401;-66
2023/02/14 11:00:36;;;;;;;20.60;12.20;;;;;;;9.16;49.27;101600.69;4989344;28;20201;-64
2023/02/14 11:03:06;;;;;;;20.40;11.02;;;;;;;9.20;51.61;101588.09;4988810;28;20056;-70
2023/02/14 11:05:40;;;;;;;16.95;10.40;;;;;;;9.39;48.92;101605.56;4989419;28;20485;-69
2023/02/14 11:08:36;;;;;;;17.58;12.05;;;;;;;9.45;48.73;101617.94;4988380;28;20049;-67
2023/02/14 11:11:25;;;;;;;19.13;11.90;;;;;;;9.38;48.64;101611.53;4931338;29;20049;-67
2023/02/14 11:13:51;;;;;;;16.45;11.40;;;;;;;9.61;48.06;101605.94;4921424;29;20112;-67
2023/02/14 11:16:34;;;;;;;21.70;11.77;;;;;;;9.59;48.62;101594.66;4931064;29;20118;-68
2023/02/14 11:19:19;;;;;;;19.00;11.65;;;;;;;9.83;48.04;101598.69;4983703;28;20129;-67
2023/02/14 11:21:48;;;;;;;22.38;12.45;;;;;;;9.46;47.53;101582.72;4981166;28;20060;-67
2023/02/14 11:24:31;;;;;;;19.42;11.82;;;;;;;9.22;48.82;101581.34;4988874;28;20018;-65
2023/02/14 11:27:00;;;;;;;17.52;11.43;;;;;;;8.96;49.27;101566.00;4988550;28;20034;-66
2023/02/14 11:29:27;;;;;;;17.55;10.15;;;;;;;9.00;48.73;101534.50;4988748;28;20073;-65
2023/02/14 11:31:54;;;;;;;19.25;11.23;;;;;;;9.36;48.29;101565.84;4972235;28;20515;-68
2023/02/14 11:34:36;;;;;;;20.38;14.35;;;;;;;9.54;48.02;101572.09;4987370;28;20038;-66
2023/02/14 11:37:13;;;;;;;19.23;12.15;;;;;;;9.68;49.27;101569.41;4988439;28;20030;-65
2023/02/14 11:39:39;;;;;;;20.48;14.00;;;;;;;9.75;47.28;101556.06;4988277;28;20101;-63
2023/02/14 11:42:05;;;;;;;22.80;13.15;;;;;;;9.77;48.22;101566.47;4988867;28;20444;-66
2023/02/14 11:44:33;;;;;;;21.92;12.40;;;;;;;9.65;48.17;101525.41;4987889;28;20053;-63